createdAt,value
2022-10-15T00:00:05.833Z,24.05
2022-10-15T00:01:11.556Z,20.95
2022-10-15T00:02:13.722Z,23.81
2022-10-15T00:03:16.529Z,25.44
2022-10-15T00:04:18.555Z,18.18
2022-10-15T00:05:21.938Z,22.49
2022-10-15T00:06:23.996Z,23.04
2022-10-15T00:07:28.307Z,23.43
2022-10-15T00:08:30.616Z,22.82
2022-10-15T00:09:32.491Z,23.33
2022-10-15T00:10:35.333Z,22.22
2022-10-15T00:11:37.256Z,24.31
2022-10-15T00:12:40.172Z,22.12
2022-10-15T00:13:42.601Z,23.19
2022-10-15T00:14:44.488Z,24.68
2022-10-15T00:15:46.383Z,21.09
2022-10-15T00:16:49.367Z,25.47
2022-10-15T00:17:51.822Z,25.95
2022-10-15T00:18:58.795Z,23.50
2022-10-15T00:20:01.747Z,19.50
2022-10-15T00:21:09.007Z,20.24
2022-10-15T00:22:10.941Z,22.11
2022-10-15T00:23:12.851Z,25.89
2022-10-15T00:24:15.108Z,21.52
2022-10-15T00:25:17.292Z,20.52
2022-10-15T00:26:22.294Z,22.90
2022-10-15T00:27:24.379Z,22.02
2022-10-15T00:28:29.485Z,21.41
2022-10-15T00:29:30.168Z,20.79
2022-10-15T00:30:32.541Z,22.55
2022-10-15T00:31:35.080Z,23.80
2022-10-15T00:32:36.992Z,22.77
2022-10-15T00:33:39.308Z,22.61
2022-10-15T00:34:41.270Z,26.77
2022-10-15T00:35:43.144Z,20.98
2022-10-15T00:36:45.472Z,21.68
2022-10-15T00:37:47.363Z,20.47
2022-10-15T00:38:50.390Z,21.00
2022-10-15T00:39:52.674Z,21.07
2022-10-15T00:40:55.250Z,21.19
2022-10-15T00:41:57.355Z,25.51
2022-10-15T00:42:59.345Z,20.33
2022-10-15T00:46:27.782Z,17.91
2022-10-15T00:47:45.786Z,19.58
2022-10-15T00:48:50.744Z,22.91
2022-10-15T00:49:56.482Z,21.39
2022-10-15T00:51:01.668Z,20.26
2022-10-15T00:52:07.544Z,19.52
2022-10-15T00:53:09.865Z,20.77
2022-10-15T00:54:12.638Z,21.91
2022-10-15T00:55:24.084Z,21.35
2022-10-15T00:56:28.977Z,21.77
2022-10-15T00:57:32.490Z,23.32
2022-10-15T00:58:35.674Z,20.50
2022-10-15T00:59:41.668Z,19.94
2022-10-15T01:00:43.961Z,22.93
2022-10-15T01:01:47.408Z,21.33
2022-10-15T01:02:49.557Z,21.59
2022-10-15T01:03:54.621Z,25.76
2022-10-15T01:04:56.675Z,22.01
2022-10-15T01:05:58.888Z,24.07
2022-10-15T01:07:00.985Z,23.37
2022-10-15T01:08:02.845Z,27.25
2022-10-15T01:09:05.266Z,24.57
2022-10-15T01:10:10.513Z,23.84
2022-10-15T01:11:18.957Z,24.37
2022-10-15T01:12:50.601Z,25.84
2022-10-15T01:14:20.628Z,25.21
2022-10-15T01:15:44.729Z,25.32
2022-10-15T01:16:56.699Z,27.34
2022-10-15T01:18:11.599Z,30.91
2022-10-15T01:19:29.550Z,26.20
2022-10-15T01:20:53.230Z,26.55
2022-10-15T01:22:16.739Z,22.16
2022-10-15T01:23:31.221Z,25.83
2022-10-15T01:24:45.743Z,27.01
2022-10-15T01:26:15.979Z,27.87
2022-10-15T01:27:36.464Z,24.02
2022-10-15T01:28:48.089Z,24.24
2022-10-15T01:30:21.811Z,25.92
2022-10-15T01:31:39.676Z,25.34
2022-10-15T01:32:45.685Z,30.02
2022-10-15T01:34:00.469Z,29.38
2022-10-15T01:35:12.091Z,27.58
2022-10-15T01:38:59.550Z,27.88
2022-10-15T01:40:08.505Z,24.46
2022-10-15T01:41:14.205Z,28.28
2022-10-15T01:42:19.982Z,28.03
2022-10-15T01:43:50.099Z,27.91
2022-10-15T01:44:55.777Z,27.16
2022-10-15T01:46:01.463Z,27.42
2022-10-15T01:47:07.211Z,26.58
2022-10-15T01:48:11.539Z,28.01
2022-10-15T01:49:17.222Z,26.55
2022-10-15T01:50:23.078Z,25.68
2022-10-15T01:51:27.277Z,24.06
2022-10-15T01:52:33.138Z,27.78
2022-10-15T01:53:36.567Z,22.84
2022-10-15T01:54:39.584Z,24.90
2022-10-15T01:55:44.730Z,20.77
2022-10-15T01:56:49.382Z,22.06
2022-10-15T01:57:53.707Z,21.49
2022-10-15T01:58:56.837Z,21.65
2022-10-15T01:59:59.952Z,20.51
2022-10-15T02:01:02.428Z,22.55
2022-10-15T02:02:04.656Z,20.39
2022-10-15T02:03:06.541Z,26.05
2022-10-15T02:04:24.157Z,29.21
2022-10-15T02:05:35.650Z,22.98
2022-10-15T02:06:41.482Z,23.10
2022-10-15T02:08:04.083Z,22.83
2022-10-15T02:09:15.934Z,21.06
2022-10-15T02:10:38.562Z,21.92
2022-10-15T02:14:07.564Z,22.27
2022-10-15T02:16:47.156Z,21.56
2022-10-15T02:18:08.337Z,20.32
2022-10-15T02:19:31.042Z,22.19
2022-10-15T02:20:39.738Z,20.75
2022-10-15T02:22:00.489Z,23.14
2022-10-15T02:23:06.186Z,20.99
2022-10-15T02:24:21.140Z,24.31
2022-10-15T02:25:25.106Z,19.76
2022-10-15T02:26:29.750Z,20.07
2022-10-15T02:27:33.474Z,25.95
2022-10-15T02:28:37.911Z,23.14
2022-10-15T02:29:42.193Z,22.39
2022-10-15T02:30:47.699Z,23.35
2022-10-15T02:31:51.927Z,19.79
2022-10-15T02:32:57.358Z,21.32
2022-10-15T02:34:03.070Z,22.46
2022-10-15T02:35:10.765Z,22.34
2022-10-15T02:36:14.412Z,22.43
2022-10-15T02:37:22.997Z,23.83
2022-10-15T02:38:28.657Z,21.82
2022-10-15T02:39:31.058Z,20.60
2022-10-15T02:40:35.108Z,21.03
2022-10-15T02:41:38.514Z,21.98
2022-10-15T02:42:40.448Z,21.70
2022-10-15T02:43:42.580Z,19.91
2022-10-15T02:44:45.192Z,21.72
2022-10-15T02:45:48.881Z,21.91
2022-10-15T02:46:50.888Z,23.02
2022-10-15T02:47:52.759Z,21.45
2022-10-15T02:48:54.768Z,20.77
2022-10-15T02:49:56.765Z,20.85
2022-10-15T02:50:58.760Z,22.22
2022-10-15T02:52:00.653Z,21.70
2022-10-15T02:53:03.453Z,21.66
2022-10-15T02:54:06.400Z,22.16
2022-10-15T02:55:09.188Z,20.69
2022-10-15T02:56:11.867Z,20.77
2022-10-15T02:57:13.740Z,22.83
2022-10-15T02:58:15.829Z,21.79
2022-10-15T02:59:17.977Z,20.31
2022-10-15T03:00:20.223Z,20.53
2022-10-15T03:01:22.475Z,20.27
2022-10-15T03:02:24.585Z,18.77
2022-10-15T03:03:26.543Z,21.07
2022-10-15T03:04:28.833Z,19.35
2022-10-15T03:05:31.080Z,21.45
2022-10-15T03:06:33.321Z,20.99
2022-10-15T03:07:35.641Z,21.99
2022-10-15T03:08:37.528Z,19.27
2022-10-15T03:09:39.462Z,21.23
2022-10-15T03:10:41.781Z,19.51
2022-10-15T03:11:44.485Z,20.51
2022-10-15T03:12:46.483Z,19.36
2022-10-15T03:13:48.520Z,19.75
2022-10-15T03:14:50.612Z,20.23
2022-10-15T03:15:52.953Z,21.54
2022-10-15T03:16:55.580Z,21.45
2022-10-15T03:17:57.842Z,21.28
2022-10-15T03:18:59.837Z,22.39
2022-10-15T03:20:01.865Z,22.36
2022-10-15T03:21:04.360Z,22.79
2022-10-15T03:22:06.687Z,20.63
2022-10-15T03:23:08.730Z,17.92
2022-10-15T03:24:10.631Z,19.42
2022-10-15T03:25:13.246Z,23.11
2022-10-15T03:26:16.133Z,22.54
2022-10-15T03:27:18.214Z,22.08
2022-10-15T03:28:22.019Z,18.28
2022-10-15T03:29:24.139Z,19.11
2022-10-15T03:30:26.114Z,21.29
2022-10-15T03:31:27.984Z,17.88
2022-10-15T03:32:32.997Z,18.79
2022-10-15T03:33:34.005Z,20.18
2022-10-15T03:34:36.475Z,20.76
2022-10-15T03:35:39.133Z,18.69
2022-10-15T03:36:41.139Z,18.84
2022-10-15T03:37:43.191Z,16.43
2022-10-15T03:38:45.066Z,22.84
2022-10-15T03:39:46.943Z,21.33
2022-10-15T03:40:48.923Z,18.63
2022-10-15T03:41:53.915Z,18.85
2022-10-15T03:42:56.255Z,20.84
2022-10-15T03:44:02.922Z,19.64
2022-10-15T03:45:05.828Z,21.23
2022-10-15T03:46:07.954Z,18.41
2022-10-15T03:47:09.908Z,16.89
2022-10-15T03:48:11.910Z,18.31
2022-10-15T03:49:13.800Z,20.17
2022-10-15T03:50:16.484Z,19.41
2022-10-15T03:51:22.698Z,16.97
2022-10-15T03:52:23.013Z,20.13
2022-10-15T03:53:25.426Z,19.69
2022-10-15T03:54:27.306Z,20.80
2022-10-15T03:55:29.197Z,20.73
2022-10-15T03:56:31.190Z,19.16
2022-10-15T03:57:33.468Z,18.43
2022-10-15T03:58:35.845Z,18.31
2022-10-15T03:59:37.779Z,20.10
2022-10-15T04:00:44.432Z,17.19
2022-10-15T04:01:46.613Z,19.88
2022-10-15T04:02:48.612Z,16.09
2022-10-15T04:03:53.292Z,22.05
2022-10-15T04:04:55.199Z,20.42
2022-10-15T04:05:59.817Z,18.46
2022-10-15T04:07:01.027Z,19.00
2022-10-15T04:08:03.754Z,21.89
2022-10-15T04:09:05.827Z,19.00
2022-10-15T04:10:08.835Z,22.65
2022-10-15T04:11:10.715Z,19.56
2022-10-15T04:12:13.215Z,15.75
2022-10-15T04:13:15.143Z,17.40
2022-10-15T04:14:17.085Z,18.57
2022-10-15T04:15:18.944Z,17.85
2022-10-15T04:16:21.044Z,18.72
2022-10-15T04:17:22.936Z,18.23
2022-10-15T04:18:24.927Z,17.72
2022-10-15T04:19:27.180Z,19.69
2022-10-15T04:20:29.165Z,20.11
2022-10-15T04:21:31.350Z,19.37
2022-10-15T04:22:33.438Z,19.71
2022-10-15T04:23:35.424Z,17.41
2022-10-15T04:24:37.341Z,20.69
2022-10-15T04:25:39.722Z,17.15
2022-10-15T04:26:41.957Z,15.56
2022-10-15T04:27:44.047Z,18.31
2022-10-15T04:28:47.923Z,19.82
2022-10-15T04:29:50.098Z,18.48
2022-10-15T04:33:16.474Z,18.71
2022-10-15T04:34:18.548Z,18.73
2022-10-15T04:35:21.674Z,17.42
2022-10-15T04:36:23.883Z,17.26
2022-10-15T04:37:25.947Z,20.34
2022-10-15T04:38:28.777Z,18.23
2022-10-15T04:39:30.787Z,16.57
2022-10-15T04:40:32.764Z,16.87
2022-10-15T04:41:34.998Z,19.66
2022-10-15T04:42:37.842Z,18.71
2022-10-15T04:43:39.764Z,16.53
2022-10-15T04:44:41.758Z,18.13
2022-10-15T04:45:43.650Z,18.87
2022-10-15T04:46:45.846Z,17.01
2022-10-15T04:47:47.726Z,14.89
2022-10-15T04:48:49.902Z,18.24
2022-10-15T04:49:51.861Z,14.95
2022-10-15T04:50:54.227Z,18.15
2022-10-15T04:51:56.135Z,15.90
2022-10-15T04:52:59.135Z,14.54
2022-10-15T04:54:07.575Z,17.54
2022-10-15T04:55:09.817Z,17.44
2022-10-15T04:56:15.195Z,16.43
2022-10-15T04:57:17.216Z,17.09
2022-10-15T04:58:19.104Z,16.11
2022-10-15T04:59:21.006Z,18.69
2022-10-15T05:00:22.999Z,16.75
2022-10-15T05:01:24.874Z,16.59
2022-10-15T05:02:26.855Z,15.83
2022-10-15T05:03:30.141Z,19.54
2022-10-15T05:04:32.104Z,16.34
2022-10-15T05:05:34.123Z,17.38
2022-10-15T05:06:36.090Z,16.37
2022-10-15T05:07:38.001Z,16.73
2022-10-15T05:08:40.003Z,17.27
2022-10-15T05:09:46.181Z,15.90
2022-10-15T05:10:45.985Z,15.38
2022-10-15T05:11:48.090Z,14.69
2022-10-15T05:12:51.567Z,17.15
2022-10-15T05:13:57.910Z,15.46
2022-10-15T05:14:59.941Z,19.96
2022-10-15T05:16:17.396Z,17.05
2022-10-15T05:17:19.476Z,14.94
2022-10-15T05:18:21.514Z,15.02
2022-10-15T05:19:23.395Z,15.91
2022-10-15T05:20:25.445Z,17.70
2022-10-15T05:21:28.705Z,16.12
2022-10-15T05:22:30.762Z,17.27
2022-10-15T05:23:32.955Z,17.69
2022-10-15T05:24:34.847Z,19.38
2022-10-15T05:25:36.960Z,15.81
2022-10-15T05:26:39.306Z,15.18
2022-10-15T05:27:41.187Z,16.13
2022-10-15T05:28:43.315Z,16.91
2022-10-15T05:29:45.679Z,13.87
2022-10-15T05:30:47.859Z,17.03
2022-10-15T05:31:51.203Z,17.68
2022-10-15T05:32:55.113Z,17.19
2022-10-15T05:34:03.482Z,17.25
2022-10-15T05:35:06.934Z,15.36
2022-10-15T05:36:21.826Z,15.74
2022-10-15T05:37:23.900Z,16.87
2022-10-15T05:38:26.186Z,17.31
2022-10-15T05:39:28.064Z,17.44
2022-10-15T05:40:30.289Z,14.76
2022-10-15T05:41:32.248Z,13.23
2022-10-15T05:42:34.291Z,20.36
2022-10-15T05:43:40.316Z,15.63
2022-10-15T05:44:40.368Z,15.51
2022-10-15T05:45:42.433Z,14.99
2022-10-15T05:46:44.530Z,18.98
2022-10-15T05:47:46.401Z,15.40
2022-10-15T05:48:50.970Z,18.55
2022-10-15T05:49:52.912Z,17.58
2022-10-15T05:51:01.057Z,16.26
2022-10-15T05:52:03.478Z,16.33
2022-10-15T05:53:05.647Z,17.33
2022-10-15T05:54:07.547Z,15.53
2022-10-15T05:55:09.413Z,18.03
2022-10-15T05:56:13.063Z,17.79
2022-10-15T05:57:14.956Z,18.14
2022-10-15T05:58:17.002Z,19.69
2022-10-15T05:59:19.009Z,19.97
2022-10-15T06:00:20.994Z,19.32
2022-10-15T06:01:23.067Z,24.49
2022-10-15T06:02:25.383Z,19.90
2022-10-15T06:03:28.531Z,16.74
2022-10-15T06:04:33.287Z,18.01
2022-10-15T06:05:34.452Z,16.56
2022-10-15T06:06:36.517Z,16.47
2022-10-15T06:07:38.598Z,19.72
2022-10-15T06:08:40.738Z,17.49
2022-10-15T06:09:42.651Z,18.92
2022-10-15T06:10:45.053Z,17.26
2022-10-15T06:11:46.977Z,14.69
2022-10-15T06:12:50.394Z,15.85
2022-10-15T06:13:52.958Z,18.17
2022-10-15T06:14:55.312Z,18.65
2022-10-15T06:15:57.921Z,14.52
2022-10-15T06:16:59.908Z,15.55
2022-10-15T06:18:01.828Z,16.99
2022-10-15T06:19:03.715Z,15.72
2022-10-15T06:20:06.728Z,18.57
2022-10-15T06:21:10.744Z,15.44
2022-10-15T06:22:12.658Z,14.91
2022-10-15T06:23:14.594Z,18.85
2022-10-15T06:24:16.477Z,15.47
2022-10-15T06:25:18.378Z,15.27
2022-10-15T06:26:20.389Z,14.91
2022-10-15T06:27:22.769Z,15.41
2022-10-15T06:28:25.310Z,13.99
2022-10-15T06:29:27.367Z,13.18
2022-10-15T06:30:29.360Z,15.09
2022-10-15T06:31:31.763Z,13.49
2022-10-15T06:32:33.765Z,13.01
2022-10-15T06:33:36.019Z,13.27
2022-10-15T06:34:37.935Z,13.35
2022-10-15T06:35:39.885Z,12.33
2022-10-15T06:36:41.996Z,13.63
2022-10-15T06:37:44.264Z,10.83
2022-10-15T06:38:47.097Z,13.53
2022-10-15T06:39:49.860Z,13.70
2022-10-15T06:40:52.150Z,13.83
2022-10-15T06:41:54.146Z,12.66
2022-10-15T06:43:05.601Z,12.31
2022-10-15T06:45:10.887Z,11.52
2022-10-15T06:46:13.268Z,13.58
2022-10-15T06:47:15.566Z,12.15
2022-10-15T06:48:18.152Z,11.75
2022-10-15T06:49:20.044Z,11.88
2022-10-15T06:50:22.034Z,12.02
2022-10-15T06:51:23.942Z,10.75
2022-10-15T06:52:28.287Z,8.67
2022-10-15T06:53:30.670Z,10.96
2022-10-15T06:54:32.592Z,12.75
2022-10-15T06:55:35.337Z,10.97
2022-10-15T06:56:37.364Z,10.46
2022-10-15T06:57:39.333Z,14.11
2022-10-15T06:58:42.322Z,9.86
2022-10-15T06:59:44.331Z,10.93
2022-10-15T07:00:46.413Z,11.39
2022-10-15T07:01:48.288Z,10.98
2022-10-15T07:02:50.926Z,10.33
2022-10-15T07:03:52.983Z,9.43
2022-10-15T07:04:54.919Z,11.67
2022-10-15T07:06:05.558Z,7.64
2022-10-15T07:07:07.520Z,11.04
2022-10-15T07:08:11.594Z,10.43
2022-10-15T07:09:14.152Z,10.56
2022-10-15T07:10:16.799Z,9.79
2022-10-15T07:11:19.275Z,11.53
2022-10-15T07:12:21.823Z,9.70
2022-10-15T07:13:24.301Z,7.00
2022-10-15T07:14:26.213Z,11.16
2022-10-15T07:15:28.841Z,8.15
2022-10-15T07:16:30.946Z,9.31
2022-10-15T07:17:32.839Z,6.86
2022-10-15T07:18:35.538Z,10.37
2022-10-15T07:19:37.503Z,8.71
2022-10-15T07:20:39.504Z,8.90
2022-10-15T07:21:41.705Z,6.56
2022-10-15T07:22:44.663Z,6.18
2022-10-15T07:23:46.586Z,7.31
2022-10-15T07:24:48.459Z,7.17
2022-10-15T07:25:50.351Z,8.17
2022-10-15T07:26:52.463Z,7.22
2022-10-15T07:27:55.619Z,6.85
2022-10-15T07:28:57.823Z,8.11
2022-10-15T07:30:00.140Z,7.05
2022-10-15T07:31:04.800Z,5.09
2022-10-15T07:32:06.765Z,7.96
2022-10-15T07:33:08.868Z,5.36
2022-10-15T07:34:10.745Z,5.01
2022-10-15T07:35:12.965Z,6.04
2022-10-15T07:36:15.449Z,5.98
2022-10-15T07:37:17.346Z,6.68
2022-10-15T07:38:19.281Z,5.06
2022-10-15T07:39:21.272Z,4.87
2022-10-15T07:40:23.292Z,4.59
2022-10-15T07:41:25.184Z,6.19
2022-10-15T07:42:27.556Z,4.56
2022-10-15T07:43:29.544Z,5.33
2022-10-15T07:44:31.844Z,5.25
2022-10-15T07:45:38.488Z,5.90
2022-10-15T07:46:41.726Z,7.78
2022-10-15T07:47:43.691Z,3.78
2022-10-15T07:48:45.562Z,5.31
2022-10-15T07:49:47.751Z,5.29
2022-10-15T07:50:57.620Z,8.05
2022-10-15T07:51:59.563Z,7.62
2022-10-15T07:53:01.458Z,5.21
2022-10-15T07:54:04.177Z,7.05
2022-10-15T07:55:07.508Z,3.55
2022-10-15T07:56:11.941Z,4.31
2022-10-15T07:57:13.913Z,8.79
2022-10-15T07:58:16.820Z,8.48
2022-10-15T07:59:18.702Z,5.40
2022-10-15T08:00:20.713Z,5.15
2022-10-15T08:01:22.853Z,9.73
2022-10-15T08:02:25.474Z,9.27
2022-10-15T08:03:28.362Z,5.24
2022-10-15T08:04:30.455Z,4.93
2022-10-15T08:05:32.963Z,4.88
2022-10-15T08:06:35.348Z,5.71
2022-10-15T08:07:37.226Z,7.67
2022-10-15T08:08:39.093Z,4.97
2022-10-15T08:09:41.018Z,4.38
2022-10-15T08:10:43.045Z,5.43
2022-10-15T08:11:45.061Z,6.03
2022-10-15T08:12:47.114Z,5.03
2022-10-15T08:13:49.094Z,3.79
2022-10-15T08:14:50.989Z,5.58
2022-10-15T08:15:56.293Z,4.62
2022-10-15T08:16:57.035Z,2.80
2022-10-15T08:17:59.248Z,4.65
2022-10-15T08:19:01.259Z,4.16
2022-10-15T08:20:04.516Z,3.27
2022-10-15T08:21:07.108Z,3.65
2022-10-15T08:22:09.014Z,4.29
2022-10-15T08:23:15.871Z,4.05
2022-10-15T08:24:17.947Z,6.63
2022-10-15T08:25:20.033Z,3.98
2022-10-15T08:26:22.288Z,6.53
2022-10-15T08:27:24.603Z,5.03
2022-10-15T08:28:27.827Z,5.47
2022-10-15T08:29:29.920Z,7.99
2022-10-15T08:30:31.907Z,3.97
2022-10-15T08:31:33.796Z,4.09
2022-10-15T08:32:35.656Z,4.77
2022-10-15T08:33:37.772Z,4.63
2022-10-15T08:34:39.701Z,3.89
2022-10-15T08:35:42.885Z,3.26
2022-10-15T08:36:44.975Z,3.83
2022-10-15T08:37:47.005Z,5.06
2022-10-15T08:38:48.975Z,4.63
2022-10-15T08:39:50.852Z,4.72
2022-10-15T08:40:58.778Z,3.85
2022-10-15T08:42:13.514Z,4.57
2022-10-15T08:43:31.417Z,2.44
2022-10-15T08:44:43.279Z,4.09
2022-10-15T08:45:46.893Z,5.24
2022-10-15T08:46:55.977Z,3.51
2022-10-15T08:48:07.747Z,6.14
2022-10-15T08:50:29.430Z,4.86
2022-10-15T08:51:35.245Z,5.46
2022-10-15T08:52:49.669Z,4.35
2022-10-15T08:53:58.528Z,2.58
2022-10-15T08:55:01.670Z,2.40
2022-10-15T08:56:07.712Z,3.87
2022-10-15T08:57:19.264Z,5.77
2022-10-15T08:58:30.870Z,2.88
2022-10-15T09:00:01.202Z,2.68
2022-10-15T09:01:06.882Z,2.52
2022-10-15T09:02:18.730Z,3.77
2022-10-15T09:03:53.840Z,3.03
2022-10-15T09:05:11.811Z,5.03
2022-10-15T09:06:35.603Z,3.26
2022-10-15T09:07:54.542Z,3.11
2022-10-15T09:09:15.982Z,3.44
2022-10-15T09:10:24.806Z,3.87
2022-10-15T09:11:48.634Z,3.46
2022-10-15T09:12:57.489Z,2.44
2022-10-15T09:14:00.019Z,5.14
2022-10-15T09:15:04.717Z,4.70
2022-10-15T09:16:22.877Z,4.06
2022-10-15T09:17:28.591Z,6.25
2022-10-15T09:18:33.530Z,3.19
2022-10-15T09:19:37.230Z,4.09
2022-10-15T09:20:39.636Z,2.43
2022-10-15T09:21:42.431Z,2.73
2022-10-15T09:22:47.224Z,3.77
2022-10-15T09:23:49.384Z,4.07
2022-10-15T09:24:52.171Z,3.39
2022-10-15T09:26:15.839Z,3.76
2022-10-15T09:27:35.636Z,1.63
2022-10-15T09:28:56.020Z,2.57
2022-10-15T09:30:02.002Z,2.11
2022-10-15T09:31:06.694Z,3.26
2022-10-15T09:32:27.608Z,2.93
2022-10-15T09:33:48.775Z,4.01
2022-10-15T09:35:00.745Z,2.28
2022-10-15T09:36:31.119Z,5.47
2022-10-15T09:38:05.852Z,2.68
2022-10-15T09:39:40.440Z,2.61
2022-10-15T09:40:55.777Z,2.63
2022-10-15T09:42:01.946Z,3.74
2022-10-15T09:43:06.063Z,2.27
2022-10-15T09:44:12.663Z,3.72
2022-10-15T09:45:16.460Z,2.38
2022-10-15T09:46:19.874Z,3.13
2022-10-15T09:47:25.307Z,5.29
2022-10-15T09:48:29.958Z,4.85
2022-10-15T09:49:36.345Z,3.44
2022-10-15T09:51:01.701Z,1.89
2022-10-15T09:52:26.228Z,2.71
2022-10-15T09:53:49.157Z,4.24
2022-10-15T09:54:58.084Z,2.98
2022-10-15T09:56:18.711Z,4.65
2022-10-15T09:57:22.982Z,1.79
2022-10-15T09:58:31.888Z,2.41
2022-10-15T09:59:33.846Z,4.38
2022-10-15T10:00:55.249Z,5.45
2022-10-15T10:02:16.361Z,2.27
2022-10-15T10:03:18.645Z,4.68
2022-10-15T10:04:20.709Z,1.91
2022-10-15T10:05:31.775Z,2.32
2022-10-15T10:06:46.587Z,2.83
2022-10-15T10:07:48.678Z,1.98
2022-10-15T10:08:59.120Z,1.87
2022-10-15T10:10:22.857Z,2.89
2022-10-15T10:11:26.547Z,3.28
2022-10-15T10:12:32.032Z,3.27
2022-10-15T10:13:37.779Z,3.76
2022-10-15T10:14:46.495Z,3.76
2022-10-15T10:15:56.074Z,2.50
2022-10-15T10:17:14.790Z,4.59
2022-10-15T10:18:22.571Z,8.51
2022-10-15T10:19:24.913Z,3.67
2022-10-15T10:20:29.914Z,5.54
2022-10-15T10:21:35.316Z,5.40
2022-10-15T10:22:51.984Z,2.57
2022-10-15T10:23:53.959Z,3.12
2022-10-15T10:24:56.035Z,4.46
2022-10-15T10:25:58.904Z,2.91
2022-10-15T10:27:02.133Z,2.59
2022-10-15T10:28:13.878Z,2.12
2022-10-15T10:29:33.714Z,2.63
2022-10-15T10:30:26.254Z,3.67
2022-10-15T10:31:31.620Z,4.76
2022-10-15T10:32:34.542Z,4.79
2022-10-15T10:33:43.122Z,3.17
2022-10-15T10:34:50.077Z,6.67
2022-10-15T10:35:51.264Z,2.42
2022-10-15T10:36:54.391Z,3.09
2022-10-15T10:37:56.881Z,2.58
2022-10-15T10:39:14.750Z,2.57
2022-10-15T10:41:55.139Z,2.74
2022-10-15T10:43:17.886Z,2.92
2022-10-15T10:44:22.996Z,2.24
2022-10-15T10:46:26.924Z,3.51
2022-10-15T10:47:32.602Z,2.13
2022-10-15T10:48:44.417Z,4.49
2022-10-15T10:49:53.073Z,2.16
2022-10-15T10:51:12.892Z,3.12
2022-10-15T10:52:24.736Z,3.44
2022-10-15T10:53:26.703Z,5.00
2022-10-15T10:54:29.966Z,3.67
2022-10-15T10:55:36.120Z,1.54
2022-10-15T10:56:41.240Z,5.92
2022-10-15T10:57:52.478Z,3.69
2022-10-15T10:59:03.840Z,4.81
2022-10-15T11:00:08.190Z,3.05
2022-10-15T11:01:12.892Z,5.41
2022-10-15T11:02:15.131Z,4.72
2022-10-15T11:03:32.797Z,2.01
2022-10-15T11:04:37.639Z,3.36
2022-10-15T11:05:40.946Z,2.21
2022-10-15T11:07:08.009Z,3.33
2022-10-15T11:08:47.637Z,2.23
2022-10-15T11:09:58.137Z,2.98
2022-10-15T11:11:23.869Z,1.86
2022-10-15T11:12:35.306Z,1.99
2022-10-15T11:14:13.317Z,2.72
2022-10-15T11:15:51.445Z,4.16
2022-10-15T11:17:00.046Z,4.03
2022-10-15T11:18:12.168Z,6.49
2022-10-15T11:19:50.432Z,3.61
2022-10-15T11:20:49.782Z,2.82
2022-10-15T11:21:57.646Z,2.32
2022-10-15T11:23:29.777Z,2.94
2022-10-15T11:25:06.038Z,2.39
2022-10-15T11:26:16.302Z,2.97
2022-10-15T11:27:25.358Z,2.72
2022-10-15T11:28:47.960Z,3.19
2022-10-15T11:30:15.154Z,2.05
2022-10-15T11:32:03.010Z,4.25
2022-10-15T11:33:22.753Z,3.12
2022-10-15T11:34:43.698Z,1.95
2022-10-15T11:36:07.093Z,3.31
2022-10-15T11:37:26.045Z,4.24
2022-10-15T11:38:31.770Z,6.46
2022-10-15T11:39:55.793Z,3.81
2022-10-15T11:41:10.634Z,1.68
2022-10-15T11:42:19.345Z,4.04
2022-10-15T11:43:27.796Z,2.77
2022-10-15T11:45:05.682Z,2.56
2022-10-15T11:46:26.880Z,3.09
2022-10-15T11:47:41.708Z,5.16
2022-10-15T11:49:05.558Z,5.10
2022-10-15T11:50:32.645Z,7.33
2022-10-15T11:51:49.925Z,5.24
2022-10-15T11:52:55.931Z,3.22
2022-10-15T11:55:40.552Z,2.01
2022-10-15T11:56:49.461Z,4.51
2022-10-15T11:57:55.394Z,2.64
2022-10-15T11:59:19.137Z,3.62
2022-10-15T12:00:31.251Z,2.36
2022-10-15T12:01:49.363Z,2.98
2022-10-15T12:02:54.169Z,3.22
2022-10-15T12:04:00.059Z,5.36
2022-10-15T12:05:11.639Z,6.78
2022-10-15T12:06:17.417Z,2.33
2022-10-15T12:07:25.718Z,3.40
2022-10-15T12:08:31.443Z,4.18
2022-10-15T12:09:39.314Z,6.36
2022-10-15T12:10:54.182Z,2.61
2022-10-15T12:12:28.504Z,3.87
2022-10-15T12:13:40.372Z,4.06
2022-10-15T12:15:09.236Z,8.20
2022-10-15T12:16:15.237Z,6.64
2022-10-15T12:17:37.665Z,4.87
2022-10-15T12:18:58.515Z,6.89
2022-10-15T12:20:09.973Z,11.48
2022-10-15T12:21:33.910Z,7.16
2022-10-15T12:22:39.331Z,12.75
2022-10-15T12:23:41.804Z,5.68
2022-10-15T12:24:50.353Z,5.82
2022-10-15T12:25:52.652Z,7.66
2022-10-15T12:26:55.775Z,6.29
2022-10-15T12:28:16.932Z,7.72
2022-10-15T12:29:26.075Z,3.31
2022-10-15T12:30:36.530Z,5.91
2022-10-15T12:31:51.300Z,4.02
2022-10-15T12:32:54.394Z,4.59
2022-10-15T12:33:57.195Z,3.33
2022-10-15T12:35:02.133Z,3.28
2022-10-15T12:36:26.112Z,3.88
2022-10-15T12:37:31.057Z,3.41
2022-10-15T12:38:35.803Z,4.67
2022-10-15T12:39:51.761Z,5.16
2022-10-15T12:40:46.629Z,2.71
2022-10-15T12:41:50.281Z,4.04
2022-10-15T12:43:04.364Z,4.61
2022-10-15T12:44:22.214Z,4.65
2022-10-15T12:45:27.796Z,6.67
2022-10-15T12:46:39.047Z,6.74
2022-10-15T12:48:07.887Z,12.67
2022-10-15T12:49:34.740Z,5.27
2022-10-15T12:50:36.904Z,3.99
2022-10-15T12:51:39.133Z,2.41
2022-10-15T12:52:59.744Z,3.25
2022-10-15T12:54:03.930Z,3.70
2022-10-15T12:55:24.440Z,4.03
2022-10-15T12:56:40.447Z,2.60
2022-10-15T12:57:49.258Z,4.12
2022-10-15T12:58:53.880Z,3.21
2022-10-15T13:00:01.098Z,3.80
2022-10-15T13:01:15.893Z,2.98
2022-10-15T13:03:53.194Z,3.11
2022-10-15T13:04:55.441Z,5.30
2022-10-15T13:06:18.246Z,3.46
2022-10-15T13:07:22.905Z,3.52
2022-10-15T13:08:25.967Z,3.97
2022-10-15T13:09:29.837Z,2.86
2022-10-15T13:10:38.955Z,5.82
2022-10-15T13:11:52.826Z,4.58
2022-10-15T13:12:58.579Z,2.71
2022-10-15T13:14:13.303Z,3.58
2022-10-15T13:15:26.490Z,3.55
2022-10-15T13:16:30.264Z,4.56
2022-10-15T13:17:32.929Z,4.57
2022-10-15T13:18:35.923Z,6.08
2022-10-15T13:19:41.800Z,7.39
2022-10-15T13:20:45.369Z,3.98
2022-10-15T13:21:55.301Z,3.35
2022-10-15T13:23:18.805Z,5.41
2022-10-15T13:24:16.976Z,4.59
2022-10-15T13:25:19.637Z,2.63
2022-10-15T13:26:27.994Z,3.86
2022-10-15T13:27:35.650Z,2.82
2022-10-15T13:28:40.077Z,3.53
2022-10-15T13:29:57.763Z,3.97
2022-10-15T13:31:04.586Z,4.12
2022-10-15T13:32:12.363Z,3.69
2022-10-15T13:33:15.151Z,4.98
2022-10-15T13:34:32.612Z,4.31
2022-10-15T13:35:38.199Z,7.73
2022-10-15T13:36:40.790Z,3.53
2022-10-15T13:37:45.440Z,3.93
2022-10-15T13:38:53.683Z,32.13
2022-10-15T13:39:55.831Z,60.62
2022-10-15T13:40:59.390Z,50.73
2022-10-15T13:42:16.693Z,27.11
2022-10-15T13:43:22.010Z,19.44
2022-10-15T13:44:24.463Z,14.53
2022-10-15T13:45:27.315Z,7.40
2022-10-15T13:47:52.144Z,5.18
2022-10-15T13:48:59.677Z,5.42
2022-10-15T13:50:14.282Z,3.46
2022-10-15T13:51:16.528Z,3.97
2022-10-15T13:52:18.789Z,3.95
2022-10-15T13:53:33.195Z,3.17
2022-10-15T13:54:35.470Z,4.69
2022-10-15T13:55:49.796Z,4.39
2022-10-15T13:56:54.749Z,6.34
2022-10-15T13:58:03.708Z,6.64
2022-10-15T13:59:05.931Z,7.29
2022-10-15T14:00:20.667Z,7.83
2022-10-15T14:01:24.681Z,6.91
2022-10-15T14:02:26.777Z,6.50
2022-10-15T14:03:31.441Z,5.15
2022-10-15T14:04:33.602Z,4.47
2022-10-15T14:05:35.981Z,8.39
2022-10-15T14:06:37.972Z,7.87
2022-10-15T14:07:39.972Z,7.36
2022-10-15T14:08:41.928Z,10.13
2022-10-15T14:09:46.190Z,7.31
2022-10-15T14:10:50.403Z,9.72
2022-10-15T14:11:53.733Z,9.09
2022-10-15T14:12:55.646Z,8.38
2022-10-15T14:13:58.743Z,7.33
2022-10-15T14:15:38.189Z,5.72
2022-10-15T14:16:43.996Z,5.86
2022-10-15T14:17:49.681Z,7.39
2022-10-15T14:18:58.377Z,8.04
2022-10-15T14:21:13.606Z,9.34
2022-10-15T14:22:18.878Z,9.06
2022-10-15T14:23:23.630Z,10.55
2022-10-15T14:24:34.997Z,11.18
2022-10-15T14:25:37.557Z,10.39
2022-10-15T14:26:40.358Z,7.14
2022-10-15T14:27:44.828Z,7.05
2022-10-15T14:28:49.814Z,6.54
2022-10-15T14:29:58.310Z,7.91
2022-10-15T14:31:01.374Z,10.99
2022-10-15T14:32:25.707Z,7.59
2022-10-15T14:33:40.283Z,8.45
2022-10-15T14:34:42.327Z,7.09
2022-10-15T14:35:44.343Z,8.85
2022-10-15T14:36:46.543Z,7.86
2022-10-15T14:38:01.039Z,9.24
2022-10-15T14:39:23.771Z,10.86
2022-10-15T14:40:26.165Z,10.41
2022-10-15T14:41:31.689Z,9.10
2022-10-15T14:42:36.206Z,8.63
2022-10-15T14:43:38.362Z,9.06
2022-10-15T14:44:46.642Z,7.55
2022-10-15T14:45:55.729Z,9.64
2022-10-15T14:47:02.698Z,11.90
2022-10-15T14:48:17.633Z,12.14
2022-10-15T14:49:23.385Z,14.13
2022-10-15T14:50:34.589Z,11.28
2022-10-15T14:51:36.656Z,12.97
2022-10-15T14:52:45.417Z,13.17